Time;durP1;ratioP1;P1;durP2;ratioP2;P2;SDS_P1;SDS_P2;PMS_P1;PMS_P2;Temp;Humidity;BMP_temperature;BMP_pressure;BME280_temperature;BME280_humidity;BME280_pressure;Samples;Min_cycle;Max_cycle;Signal;HPM_P1;HPM_P2
2021/12/10 00:01:39;;;;;;;0.90;0.90;;;3.10;73.80;2.10;96919.00;;;;5097331;28;20628;-71
2021/12/10 00:04:12;;;;;;;0.60;0.60;;;3.10;73.50;2.10;96919.00;;;;5115123;28;20197;-71
2021/12/10 00:06:45;;;;;;;0.50;0.50;;;3.00;73.70;2.10;96913.00;;;;5115012;28;20225;-72
2021/12/10 00:09:17;;;;;;;0.60;0.60;;;3.00;74.40;2.00;96914.00;;;;5115022;28;20283;-73
2021/12/10 00:11:50;;;;;;;0.80;0.80;;;2.90;73.80;1.90;96905.00;;;;5115037;28;20309;-71
2021/12/10 00:14:24;;;;;;;0.70;0.70;;;2.90;73.80;2.00;96881.00;;;;5114744;28;20229;-71
2021/12/10 00:16:51;;;;;;;0.87;0.87;;;2.90;73.80;2.00;96857.00;;;;5097183;28;20201;-72
2021/12/10 00:19:27;;;;;;;0.70;0.70;;;3.00;73.80;2.00;96877.00;;;;5114859;28;20280;-72
2021/12/10 00:21:57;;;;;;;0.57;0.57;;;2.90;73.80;2.00;96869.00;;;;5115011;28;20230;-72
2021/12/10 00:24:28;;;;;;;0.90;0.90;;;2.90;73.90;1.90;96844.00;;;;5114973;28;20624;-71
2021/12/10 00:26:57;;;;;;;0.53;0.53;;;2.90;74.10;1.90;96868.00;;;;5114741;28;20200;-72
2021/12/10 00:29:24;;;;;;;0.50;0.50;;;2.80;75.00;1.80;96863.00;;;;5114653;28;20281;-71
2021/12/10 00:32:01;;;;;;;0.97;0.97;;;2.80;74.30;1.70;96858.00;;;;5114695;28;20538;-71
2021/12/10 00:34:38;;;;;;;0.60;0.60;;;2.80;74.80;1.80;96856.00;;;;5114489;28;20543;-71
2021/12/10 00:37:08;;;;;;;1.60;1.43;;;2.70;75.00;1.80;96851.00;;;;5114367;28;20719;-71
2021/12/10 00:39:42;;;;;;;0.73;0.73;;;2.70;75.00;1.70;96845.00;;;;5114582;28;20217;-71
2021/12/10 00:42:13;;;;;;;0.60;0.60;;;2.70;75.30;1.70;96816.00;;;;5114543;28;20265;-71
2021/12/10 00:44:40;;;;;;;0.50;0.50;;;2.60;75.40;1.60;96833.00;;;;5114550;28;20223;-71
2021/12/10 00:47:07;;;;;;;0.60;0.60;;;2.60;76.30;1.60;96827.00;;;;5114427;28;20252;-71
2021/12/10 00:49:35;;;;;;;3.40;1.17;;;2.50;75.90;1.60;96827.00;;;;5096360;28;20228;-71
2021/12/10 00:52:05;;;;;;;0.53;0.53;;;2.50;76.10;1.50;96807.00;;;;5113623;28;20202;-71
2021/12/10 00:54:32;;;;;;;0.97;0.97;;;2.50;76.80;1.50;96815.00;;;;5114267;28;20226;-71
2021/12/10 00:56:59;;;;;;;0.60;0.60;;;2.40;76.00;1.50;96793.00;;;;5096229;28;20320;-71
2021/12/10 00:59:26;;;;;;;0.70;0.70;;;2.40;76.30;1.50;96811.00;;;;5114302;28;20205;-72
2021/12/10 01:01:53;;;;;;;0.87;0.87;;;2.40;76.30;1.50;96805.00;;;;5114286;28;20275;-71
2021/12/10 01:04:26;;;;;;;0.60;0.60;;;2.40;76.40;1.30;96804.00;;;;5114112;28;20233;-72
2021/12/10 01:06:57;;;;;;;1.00;1.00;;;2.30;76.10;1.30;96798.00;;;;5114154;28;20195;-71
2021/12/10 01:09:30;;;;;;;0.73;0.73;;;2.30;76.30;1.30;96793.00;;;;5114284;28;20261;-71
2021/12/10 01:12:07;;;;;;;0.73;0.73;;;2.30;76.50;1.40;96787.00;;;;5114144;28;20188;-72
2021/12/10 01:14:59;;;;;;;0.90;0.90;;;2.30;75.80;1.40;96783.00;;;;5114007;28;20242;-71
2021/12/10 01:26:10;;;;;;;0.60;0.60;;;2.30;75.40;1.40;96770.00;;;;5113870;28;20236;-71
2021/12/10 01:28:43;;;;;;;0.60;0.60;;;2.30;75.80;1.40;96765.00;;;;5114022;28;20202;-71
2021/12/10 01:31:10;;;;;;;0.70;0.70;;;2.30;75.50;1.40;96766.00;;;;5115248;28;20275;-71
2021/12/10 01:33:38;;;;;;;0.60;0.60;;;2.30;74.40;1.40;96754.00;;;;5117381;28;20247;-71
2021/12/10 01:36:07;;;;;;;0.70;0.70;;;2.30;74.20;1.30;96748.00;;;;5117345;28;20296;-71
2021/12/10 01:38:36;;;;;;;0.60;0.60;;;2.30;74.20;1.30;96751.00;;;;5117348;28;20204;-72
2021/12/10 01:41:08;;;;;;;5.77;0.90;;;2.30;74.60;1.30;96740.00;;;;5117413;28;20221;-71
2021/12/10 01:43:36;;;;;;;0.60;0.60;;;2.30;74.70;1.20;96722.00;;;;5117330;28;20693;-71
2021/12/10 01:46:11;;;;;;;0.50;0.50;;;2.20;74.70;1.30;96714.00;;;;5117149;28;20203;-71
2021/12/10 01:48:42;;;;;;;0.60;0.60;;;2.30;74.60;1.30;96715.00;;;;5099423;28;20214;-71
2021/12/10 01:51:15;;;;;;;0.80;0.80;;;2.30;74.50;1.40;96703.00;;;;5117333;28;20301;-72
2021/12/10 01:53:46;;;;;;;3.30;0.93;;;2.30;74.50;1.40;96701.00;;;;5099316;28;20228;-73
2021/12/10 01:56:18;;;;;;;0.63;0.63;;;2.30;74.60;1.30;96695.00;;;;5117079;28;20234;-71
2021/12/10 01:58:46;;;;;;;0.83;0.83;;;2.20;74.30;1.20;96687.00;;;;5117084;28;20520;-71
2021/12/10 02:01:18;;;;;;;0.60;0.60;;;2.20;74.40;1.30;96687.00;;;;5116827;28;20299;-72
2021/12/10 02:03:47;;;;;;;0.57;0.57;;;2.20;74.60;1.30;96676.00;;;;5117002;28;20205;-72
2021/12/10 02:06:14;;;;;;;1.73;1.63;;;2.20;74.40;1.20;96676.00;;;;5116983;28;20192;-72
2021/12/10 02:08:43;;;;;;;0.70;0.70;;;2.20;74.50;1.20;96668.00;;;;5098949;28;20527;-71
2021/12/10 02:11:10;;;;;;;0.90;0.90;;;2.20;74.50;1.20;96669.00;;;;5098924;28;20196;-72
2021/12/10 02:13:37;;;;;;;1.10;1.10;;;2.10;74.50;1.20;96657.00;;;;5116837;28;20611;-72
2021/12/10 02:16:06;;;;;;;0.60;0.60;;;2.10;74.70;1.20;96626.00;;;;5116748;28;20263;-72
2021/12/10 02:18:33;;;;;;;0.60;0.60;;;2.10;74.70;1.20;96656.00;;;;5116791;28;20585;-72
2021/12/10 02:21:17;;;;;;;0.50;0.50;;;2.10;74.60;1.10;96644.00;;;;5116754;28;20196;-71
2021/12/10 02:23:50;;;;;;;0.73;0.73;;;2.10;74.30;1.10;96642.00;;;;5116674;28;20189;-72
2021/12/10 02:26:17;;;;;;;1.10;1.10;;;2.10;74.50;1.10;96636.00;;;;5116615;28;20216;-72
2021/12/10 02:28:44;;;;;;;0.93;0.93;;;2.10;74.30;1.10;96623.00;;;;5116530;28;20197;-71
2021/12/10 02:31:13;;;;;;;0.80;0.80;;;2.10;73.90;1.30;96629.00;;;;5116557;28;20251;-71
2021/12/10 02:33:44;;;;;;;2.37;1.10;;;2.20;74.00;1.10;96624.00;;;;5116544;28;20293;-71
2021/12/10 02:36:12;;;;;;;0.73;0.73;;;2.10;73.50;1.10;96626.00;;;;5116351;28;20259;-71
2021/12/10 02:38:41;;;;;;;0.70;0.70;;;2.00;73.60;1.10;96615.00;;;;5116596;28;20508;-71
2021/12/10 02:41:08;;;;;;;0.60;0.60;;;2.10;73.60;1.10;96598.00;;;;5116352;28;20200;-71
2021/12/10 02:43:36;;;;;;;0.60;0.60;;;2.00;73.30;1.20;96589.00;;;;5115053;28;20303;-71
2021/12/10 02:46:06;;;;;;;1.03;1.03;;;2.00;73.50;1.10;96578.00;;;;5116345;28;20514;-72
2021/12/10 02:48:33;;;;;;;0.70;0.70;;;2.00;73.50;1.00;96584.00;;;;5116251;28;20184;-73
2021/12/10 02:51:03;;;;;;;0.60;0.60;;;2.00;73.50;1.10;96593.00;;;;5116133;28;20220;-71
2021/12/10 02:53:36;;;;;;;0.53;0.53;;;2.00;73.30;1.10;96586.00;;;;5116339;28;20218;-72
2021/12/10 02:56:04;;;;;;;0.83;0.83;;;2.00;72.90;1.00;96529.00;;;;5116217;28;20219;-71
2021/12/10 02:58:32;;;;;;;0.80;0.80;;;2.00;72.90;1.20;96562.00;;;;5116080;28;20287;-71
2021/12/10 03:01:07;;;;;;;0.50;0.50;;;2.00;73.00;1.10;96555.00;;;;5116114;28;20199;-71
2021/12/10 03:03:34;;;;;;;0.70;0.70;;;2.00;72.70;0.90;96551.00;;;;5098116;28;20661;-71
2021/12/10 03:06:10;;;;;;;0.67;0.67;;;1.90;72.90;0.80;96551.00;;;;5115844;28;20230;-72
2021/12/10 03:08:39;;;;;;;0.90;0.90;;;1.90;73.20;0.80;96560.00;;;;5115991;28;20723;-71
2021/12/10 03:11:07;;;;;;;0.60;0.60;;;1.80;73.10;0.80;96568.00;;;;5115928;28;20219;-72
2021/12/10 03:13:34;;;;;;;2.53;1.43;;;1.80;73.40;0.90;96571.00;;;;5115759;28;20690;-71
2021/12/10 03:16:00;;;;;;;0.60;0.60;;;1.80;73.60;0.90;96553.00;;;;5115718;28;20217;-72
2021/12/10 03:18:27;;;;;;;0.60;0.60;;;1.80;73.40;0.90;96553.00;;;;5115974;28;20201;-72
2021/12/10 03:20:54;;;;;;;0.70;0.70;;;1.80;73.20;0.80;96563.00;;;;5115735;28;20347;-72
2021/12/10 03:23:21;;;;;;;0.60;0.60;;;1.80;73.20;0.80;96555.00;;;;5097969;28;20199;-71
2021/12/10 03:25:48;;;;;;;0.70;0.70;;;1.80;73.20;0.90;96549.00;;;;5115577;28;20309;-71
2021/12/10 03:28:16;;;;;;;0.60;0.60;;;1.80;73.10;0.80;96534.00;;;;5115560;28;20194;-72
2021/12/10 03:30:49;;;;;;;0.70;0.70;;;1.80;73.00;0.90;96535.00;;;;5115649;28;20306;-72
2021/12/10 03:33:15;;;;;;;0.70;0.70;;;1.80;72.90;0.80;96523.00;;;;5097512;28;20635;-72
2021/12/10 03:35:48;;;;;;;1.53;1.43;;;1.70;72.60;0.90;96526.00;;;;5115567;28;20655;-71
2021/12/10 03:38:20;;;;;;;0.70;0.70;;;1.80;72.00;0.80;96518.00;;;;5115483;28;20188;-73
2021/12/10 03:40:47;;;;;;;0.60;0.60;;;1.80;72.10;0.70;96511.00;;;;5097814;28;20231;-71
2021/12/10 03:43:15;;;;;;;0.67;0.67;;;1.80;72.40;0.90;96515.00;;;;5097481;28;20199;-71
2021/12/10 03:45:47;;;;;;;0.60;0.60;;;1.80;72.40;0.90;96503.00;;;;5115419;28;20194;-71
2021/12/10 03:48:18;;;;;;;0.77;0.77;;;1.70;72.60;0.80;96495.00;;;;5115170;28;20234;-71
2021/12/10 03:50:49;;;;;;;0.80;0.80;;;1.80;72.50;0.80;96477.00;;;;5097447;28;20202;-72
2021/12/10 03:53:17;;;;;;;0.60;0.60;;;1.80;72.30;0.80;96486.00;;;;5096876;28;20539;-72
2021/12/10 03:55:46;;;;;;;0.60;0.60;;;1.70;72.20;0.90;96472.00;;;;5115164;28;20237;-71
2021/12/10 03:58:16;;;;;;;0.70;0.70;;;1.80;72.10;0.80;96407.00;;;;5115469;28;20290;-72
2021/12/10 04:00:47;;;;;;;0.63;0.63;;;1.70;71.70;0.70;96444.00;;;;5115211;28;20637;-71
2021/12/10 04:03:18;;;;;;;1.00;1.00;;;1.60;71.50;0.60;96455.00;;;;5114799;28;20265;-69
2021/12/10 04:05:46;;;;;;;0.83;0.83;;;1.60;71.80;0.60;96440.00;;;;5115065;28;20256;-74
2021/12/10 04:08:13;;;;;;;0.70;0.70;;;1.60;71.90;0.60;96438.00;;;;5114939;28;20218;-70
2021/12/10 04:10:43;;;;;;;0.60;0.60;;;1.60;72.10;0.60;96440.00;;;;5114923;28;20217;-70
2021/12/10 04:13:11;;;;;;;0.83;0.83;;;1.60;71.90;0.60;96428.00;;;;5096909;28;20698;-70
2021/12/10 04:15:39;;;;;;;0.70;0.70;;;1.60;71.60;0.70;96431.00;;;;5114960;28;20320;-71
2021/12/10 04:18:09;;;;;;;0.73;0.73;;;1.50;71.60;0.60;96426.00;;;;5114816;28;20564;-70
2021/12/10 04:20:35;;;;;;;0.60;0.60;;;1.50;71.40;0.60;96432.00;;;;5096887;28;20736;-70
2021/12/10 04:23:11;;;;;;;0.60;0.60;;;1.50;71.50;0.50;96429.00;;;;5114785;28;20264;-70
2021/12/10 04:25:41;;;;;;;0.70;0.70;;;1.50;71.50;0.40;96426.00;;;;5114849;28;20257;-70
2021/12/10 04:28:11;;;;;;;0.70;0.70;;;1.40;71.90;0.50;96420.00;;;;5114708;28;20206;-70
2021/12/10 04:30:42;;;;;;;0.90;0.90;;;1.40;72.30;0.50;96434.00;;;;5114619;28;20191;-70
2021/12/10 04:33:12;;;;;;;0.60;0.60;;;1.40;72.60;0.40;96429.00;;;;5114761;28;20199;-70
2021/12/10 04:35:44;;;;;;;0.73;0.73;;;1.40;72.70;0.60;96416.00;;;;5096673;28;20587;-70
2021/12/10 04:38:15;;;;;;;0.97;0.97;;;1.50;73.00;0.50;96382.00;;;;5114743;28;20308;-70
2021/12/10 04:40:45;;;;;;;0.90;0.90;;;1.50;72.40;0.50;96415.00;;;;5096591;28;20227;-70
2021/12/10 04:43:14;;;;;;;0.90;0.90;;;1.40;72.60;0.50;96422.00;;;;5114491;28;20319;-70
2021/12/10 04:45:42;;;;;;;0.60;0.60;;;1.40;73.00;0.50;96420.00;;;;5114312;28;20234;-70
2021/12/10 04:48:08;;;;;;;0.87;0.83;;;1.40;73.40;0.40;96412.00;;;;5114532;28;20281;-70
2021/12/10 04:50:38;;;;;;;1.37;1.37;;;1.40;73.40;0.40;96409.00;;;;5114364;28;20225;-70
2021/12/10 04:53:07;;;;;;;0.90;0.90;;;1.40;73.70;0.40;96400.00;;;;5114215;28;20246;-70
2021/12/10 04:55:35;;;;;;;0.70;0.70;;;1.30;74.70;0.40;96386.00;;;;5114293;28;20240;-70
2021/12/10 04:58:02;;;;;;;0.80;0.80;;;1.30;74.10;0.30;96389.00;;;;5114422;28;20195;-69
2021/12/10 05:00:34;;;;;;;0.70;0.70;;;1.30;74.20;0.30;96380.00;;;;5096250;28;20691;-70
2021/12/10 05:03:04;;;;;;;0.70;0.70;;;1.20;74.10;0.20;96387.00;;;;5096324;28;20199;-70
2021/12/10 05:05:30;;;;;;;0.93;0.93;;;1.10;74.20;0.20;96380.00;;;;5114519;28;20197;-70
2021/12/10 05:07:59;;;;;;;1.10;1.10;;;1.10;74.80;0.20;96379.00;;;;5118028;28;20201;-70
2021/12/10 05:10:26;;;;;;;0.67;0.67;;;1.10;74.90;0.10;96372.00;;;;5117820;28;20293;-71
2021/12/10 05:12:53;;;;;;;0.80;0.80;;;1.10;75.00;0.10;96371.00;;;;5099844;28;20203;-70
2021/12/10 05:15:27;;;;;;;1.33;1.23;;;1.10;75.10;0.10;96367.00;;;;5117577;28;20222;-72
2021/12/10 05:17:57;;;;;;;0.70;0.70;;;1.10;75.30;0.00;96365.00;;;;5117892;28;20191;-70
2021/12/10 05:20:30;;;;;;;0.67;0.67;;;1.10;75.40;0.10;96358.00;;;;5117658;28;20222;-70
2021/12/10 05:22:57;;;;;;;0.60;0.60;;;1.00;75.50;0.00;96346.00;;;;5117661;28;20220;-72
2021/12/10 05:25:28;;;;;;;0.90;0.90;;;1.00;75.50;0.00;96332.00;;;;5099600;28;20281;-70
2021/12/10 05:27:56;;;;;;;0.70;0.70;;;0.90;75.70;0.00;96335.00;;;;5099464;28;20230;-70
2021/12/10 05:30:31;;;;;;;0.90;0.90;;;1.00;75.80;0.00;96325.00;;;;5117552;28;20205;-71
2021/12/10 05:33:01;;;;;;;0.93;0.93;;;1.00;76.00;0.00;96329.00;;;;5116576;28;20508;-71
2021/12/10 05:35:33;;;;;;;0.50;0.50;;;0.90;75.80;0.00;96330.00;;;;5117219;28;20237;-70
2021/12/10 05:38:02;;;;;;;0.70;0.70;;;0.90;76.10;0.00;96326.00;;;;5117308;28;20209;-70
2021/12/10 05:40:28;;;;;;;0.70;0.70;;;1.00;76.90;-0.10;96340.00;;;;5117459;28;20251;-70
2021/12/10 05:42:55;;;;;;;1.47;1.37;;;1.00;76.00;-0.10;96341.00;;;;5099362;28;20939;-71
2021/12/10 05:45:25;;;;;;;0.63;0.63;;;0.90;76.20;0.00;96341.00;;;;5117158;28;20213;-71
2021/12/10 05:47:52;;;;;;;1.40;1.27;;;0.90;76.30;0.10;96338.00;;;;5117289;28;20621;-71
2021/12/10 05:50:23;;;;;;;1.00;1.00;;;1.00;76.10;0.00;96343.00;;;;5116986;28;20226;-70
2021/12/10 05:52:50;;;;;;;1.23;1.13;;;1.00;75.90;0.00;96341.00;;;;5117206;28;20623;-71
2021/12/10 05:55:20;;;;;;;1.87;1.77;;;1.00;76.00;0.00;96328.00;;;;5116939;28;20225;-71
2021/12/10 05:57:47;;;;;;;1.20;1.20;;;0.90;75.90;0.10;96325.00;;;;5117021;28;20309;-71
2021/12/10 06:00:20;;;;;;;0.90;0.90;;;1.10;76.10;0.00;96318.00;;;;5117010;28;20285;-70
2021/12/10 06:02:47;;;;;;;0.77;0.77;;;1.00;75.70;0.00;96311.00;;;;5116980;28;20274;-71
2021/12/10 06:05:13;;;;;;;0.70;0.70;;;0.90;75.80;0.00;96299.00;;;;5116645;28;20528;-70
2021/12/10 06:07:40;;;;;;;0.77;0.77;;;0.90;75.60;0.00;96290.00;;;;5117091;28;20285;-70
2021/12/10 06:10:12;;;;;;;1.00;1.00;;;0.90;75.70;-0.10;96281.00;;;;5117151;28;20277;-70
2021/12/10 06:12:40;;;;;;;0.93;0.93;;;0.90;75.90;0.00;96269.00;;;;5116914;28;20231;-71
2021/12/10 06:15:08;;;;;;;0.70;0.70;;;0.90;76.00;0.00;96255.00;;;;5099020;28;20272;-72
2021/12/10 06:17:35;;;;;;;1.03;1.03;;;0.90;76.30;0.00;96266.00;;;;5116650;28;20282;-70
2021/12/10 06:20:04;;;;;;;2.03;1.83;;;1.00;76.30;0.10;96251.00;;;;5116669;28;20628;-71
2021/12/10 06:22:33;;;;;;;0.97;0.97;;;1.00;76.20;0.10;96260.00;;;;5098795;28;20292;-71
2021/12/10 06:25:00;;;;;;;0.70;0.70;;;1.00;76.00;0.00;96259.00;;;;5116203;28;20578;-71
2021/12/10 06:27:30;;;;;;;1.20;1.20;;;1.00;75.80;0.10;96250.00;;;;5116827;28;20468;-71
2021/12/10 06:29:57;;;;;;;1.80;1.57;;;1.00;76.20;0.10;96257.00;;;;5098790;28;20528;-71
2021/12/10 06:32:26;;;;;;;0.83;0.83;;;1.00;76.80;0.10;96249.00;;;;5116465;28;20658;-70
2021/12/10 06:34:54;;;;;;;1.00;1.00;;;1.00;76.10;0.10;96248.00;;;;5116524;28;20241;-71
2021/12/10 06:37:21;;;;;;;1.30;1.20;;;1.10;75.90;0.10;96238.00;;;;5116683;28;20625;-70
2021/12/10 06:39:48;;;;;;;1.83;1.33;;;1.10;75.80;0.10;96232.00;;;;5116319;28;20247;-71
2021/12/10 06:42:15;;;;;;;5.47;1.80;;;1.10;75.90;0.20;96233.00;;;;5116439;28;20285;-70
2021/12/10 06:44:42;;;;;;;0.63;0.63;;;1.10;75.90;0.20;96210.00;;;;5116316;28;20205;-71
2021/12/10 06:47:09;;;;;;;0.87;0.87;;;1.10;76.50;0.30;96188.00;;;;5116299;28;20238;-71
2021/12/10 06:49:38;;;;;;;0.50;0.50;;;1.20;75.60;0.30;96201.00;;;;5116421;28;20232;-71
2021/12/10 06:52:06;;;;;;;0.80;0.80;;;1.20;75.50;0.30;96196.00;;;;5098377;28;20610;-72
2021/12/10 06:54:33;;;;;;;1.10;1.10;;;1.20;75.50;0.30;96196.00;;;;5116385;28;20662;-71
2021/12/10 06:56:59;;;;;;;1.23;1.20;;;1.20;75.40;0.30;96188.00;;;;5116320;28;20253;-70
2021/12/10 06:59:26;;;;;;;0.80;0.80;;;1.20;75.30;0.20;96182.00;;;;5116101;28;20191;-71
2021/12/10 07:01:56;;;;;;;1.33;1.23;;;1.20;75.10;0.10;96197.00;;;;5116038;28;20294;-71
2021/12/10 07:04:25;;;;;;;1.07;1.07;;;1.10;75.40;0.10;96182.00;;;;5116195;28;20210;-71
2021/12/10 07:06:53;;;;;;;1.70;1.13;;;1.10;76.00;0.10;96169.00;;;;5115918;28;20237;-71
2021/12/10 07:09:24;;;;;;;1.20;1.20;;;1.10;76.00;0.10;96165.00;;;;5115950;28;20297;-73
2021/12/10 07:11:54;;;;;;;0.90;0.90;;;1.10;76.40;0.10;96148.00;;;;5115936;28;20194;-70
2021/12/10 07:14:21;;;;;;;0.73;0.73;;;1.00;76.30;0.10;96142.00;;;;5098023;28;20198;-70
2021/12/10 07:16:48;;;;;;;1.27;1.27;;;1.00;76.40;0.00;96151.00;;;;5115687;28;20248;-71
2021/12/10 07:19:16;;;;;;;1.17;1.17;;;1.00;76.60;0.10;96147.00;;;;5115851;28;20222;-70
2021/12/10 07:21:44;;;;;;;1.20;1.20;;;1.00;77.00;0.10;96129.00;;;;5115622;28;20301;-71
2021/12/10 07:24:16;;;;;;;1.33;1.07;;;1.00;76.70;0.00;96135.00;;;;5097817;28;20254;-71
2021/12/10 07:26:45;;;;;;;1.33;1.23;;;1.00;76.70;0.10;96130.00;;;;5115745;28;20641;-71
2021/12/10 07:29:13;;;;;;;1.43;1.43;;;1.10;77.10;0.10;96124.00;;;;5114543;28;20326;-71
2021/12/10 07:31:45;;;;;;;0.70;0.70;;;1.00;77.00;0.10;96133.00;;;;5115797;28;20210;-71
2021/12/10 07:34:12;;;;;;;0.80;0.80;;;1.10;77.20;0.20;96130.00;;;;5115623;28;20230;-70
2021/12/10 07:36:40;;;;;;;1.87;1.77;;;1.10;77.60;0.20;96136.00;;;;5115261;28;20238;-70
2021/12/10 07:39:08;;;;;;;1.90;1.80;;;1.10;77.30;0.20;96135.00;;;;5115480;28;20324;-70
2021/12/10 07:41:35;;;;;;;1.07;1.07;;;1.10;77.20;0.20;96137.00;;;;5115430;28;20304;-70
2021/12/10 07:44:03;;;;;;;1.57;1.47;;;1.10;77.30;0.20;96138.00;;;;5115390;28;20196;-70
2021/12/10 07:46:32;;;;;;;0.83;0.83;;;1.10;77.40;0.30;96139.00;;;;5115463;28;20269;-73
2021/12/10 07:48:59;;;;;;;1.67;1.57;;;1.20;77.50;0.30;96129.00;;;;5097352;28;20279;-71
2021/12/10 07:51:30;;;;;;;1.77;1.67;;;1.20;77.30;0.30;96126.00;;;;5115258;28;20267;-71
2021/12/10 07:53:59;;;;;;;0.90;0.90;;;1.20;77.20;0.30;96120.00;;;;5115109;28;20522;-71
2021/12/10 07:56:30;;;;;;;1.00;1.00;;;1.20;77.00;0.30;96128.00;;;;5115100;28;20717;-71
2021/12/10 07:58:57;;;;;;;1.47;1.43;;;1.20;77.10;0.30;96118.00;;;;5115020;28;20257;-70
2021/12/10 08:01:29;;;;;;;1.33;1.30;;;1.20;77.20;0.30;96126.00;;;;5114857;28;20233;-72
2021/12/10 08:03:58;;;;;;;0.80;0.80;;;1.20;77.30;0.40;96126.00;;;;5115302;28;20226;-73
2021/12/10 08:06:28;;;;;;;1.53;1.20;;;1.30;77.50;0.40;96111.00;;;;5097426;28;20306;-73
2021/12/10 08:08:55;;;;;;;1.00;1.00;;;1.30;77.20;0.40;96084.00;;;;5115152;28;20230;-72
2021/12/10 08:11:24;;;;;;;0.90;0.90;;;1.30;77.30;0.50;96116.00;;;;5097509;28;20556;-73
2021/12/10 08:13:51;;;;;;;1.20;1.20;;;1.30;77.20;0.50;96113.00;;;;5097366;28;20203;-72
2021/12/10 08:16:18;;;;;;;0.93;0.93;;;1.30;77.10;0.50;96116.00;;;;5114765;28;20318;-71
2021/12/10 08:18:47;;;;;;;3.17;1.30;;;1.30;76.90;0.50;96115.00;;;;5115000;28;20531;-71
2021/12/10 08:21:14;;;;;;;1.50;1.43;;;1.40;77.00;0.50;96116.00;;;;5114768;28;20202;-72
2021/12/10 08:23:42;;;;;;;1.20;1.20;;;1.40;77.00;0.50;96117.00;;;;5114759;28;20359;-73
2021/12/10 08:26:12;;;;;;;1.27;1.17;;;1.40;76.80;0.50;96117.00;;;;5114949;28;20222;-72
2021/12/10 08:28:40;;;;;;;0.70;0.70;;;1.40;76.80;0.50;96118.00;;;;5114847;28;20214;-73
2021/12/10 08:31:07;;;;;;;1.53;1.43;;;1.50;76.90;0.60;96119.00;;;;5097053;28;20198;-72
2021/12/10 08:33:34;;;;;;;1.57;1.40;;;1.50;76.50;0.40;96108.00;;;;5114648;28;20301;-73
2021/12/10 08:36:06;;;;;;;0.93;0.93;;;1.50;76.50;0.50;96106.00;;;;5096602;28;20245;-73
2021/12/10 08:38:33;;;;;;;1.33;1.23;;;1.50;76.10;0.60;96113.00;;;;5114750;28;20334;-74
2021/12/10 08:41:08;;;;;;;1.60;1.50;;;1.50;76.00;0.70;96111.00;;;;5095534;28;20207;-73
2021/12/10 08:43:38;;;;;;;2.70;2.50;;;1.60;76.10;0.70;96105.00;;;;5114582;28;20242;-72
2021/12/10 08:46:08;;;;;;;1.20;1.20;;;1.60;75.50;0.80;96115.00;;;;5114830;28;20275;-73
2021/12/10 08:48:36;;;;;;;1.00;1.00;;;1.70;75.70;0.90;96105.00;;;;5096049;28;20243;-72
2021/12/10 08:51:10;;;;;;;1.43;1.33;;;1.70;74.70;1.00;96111.00;;;;5096575;28;20224;-72
2021/12/10 08:53:36;;;;;;;1.07;1.00;;;1.80;74.20;1.00;96106.00;;;;5114409;28;20271;-72
2021/12/10 08:56:05;;;;;;;0.80;0.80;;;1.90;73.60;1.10;96107.00;;;;5114476;28;20222;-72
2021/12/10 08:58:33;;;;;;;0.97;0.97;;;1.90;74.40;1.20;96105.00;;;;5114388;28;20279;-71
2021/12/10 09:01:07;;;;;;;0.90;0.90;;;2.00;73.30;1.30;96113.00;;;;5096525;28;20196;-72
2021/12/10 09:03:35;;;;;;;1.10;1.10;;;2.10;73.00;1.30;96112.00;;;;5114441;28;20269;-72
2021/12/10 09:06:04;;;;;;;0.70;0.70;;;2.10;72.50;1.40;96106.00;;;;5114399;28;20198;-72
2021/12/10 09:08:31;;;;;;;0.73;0.73;;;2.20;71.50;1.30;96102.00;;;;5114438;28;20235;-73
2021/12/10 09:10:58;;;;;;;0.80;0.80;;;2.20;71.20;1.40;96104.00;;;;5096239;28;20277;-72
2021/12/10 09:13:25;;;;;;;0.70;0.70;;;2.20;70.70;1.30;96088.00;;;;5113874;28;20196;-72
2021/12/10 09:15:57;;;;;;;1.33;1.30;;;2.20;70.20;1.40;96078.00;;;;5096146;28;20225;-72
2021/12/10 09:18:28;;;;;;;1.20;1.20;;;2.30;70.40;1.50;96049.00;;;;5114050;28;20235;-73
2021/12/10 09:21:00;;;;;;;2.10;2.00;;;2.30;70.00;1.50;96075.00;;;;5114139;28;20305;-72
2021/12/10 09:23:28;;;;;;;0.73;0.73;;;2.40;69.90;1.60;96072.00;;;;5114013;28;20233;-72
2021/12/10 09:26:02;;;;;;;0.90;0.90;;;2.40;69.90;1.50;96072.00;;;;5096066;28;20222;-72
2021/12/10 09:28:29;;;;;;;0.80;0.80;;;2.50;69.90;1.70;96071.00;;;;5114435;28;20205;-72
2021/12/10 09:31:00;;;;;;;4.57;1.20;;;2.50;69.80;1.70;96062.00;;;;5113850;28;20229;-72
2021/12/10 09:33:31;;;;;;;0.87;0.87;;;2.60;69.60;1.80;96062.00;;;;5114011;28;20217;-73
2021/12/10 09:35:58;;;;;;;1.20;1.20;;;2.60;70.00;1.90;96066.00;;;;5113730;28;20253;-73
2021/12/10 09:38:25;;;;;;;0.70;0.70;;;2.60;70.00;1.80;96045.00;;;;5113882;28;20284;-73
2021/12/10 09:40:57;;;;;;;0.83;0.83;;;2.70;69.10;1.90;96047.00;;;;5095923;28;20207;-73
2021/12/10 09:43:24;;;;;;;0.70;0.70;;;2.80;68.40;2.00;96049.00;;;;5113796;28;20598;-72
2021/12/10 09:45:52;;;;;;;0.73;0.73;;;2.80;68.60;2.10;96040.00;;;;5113746;28;20629;-72
2021/12/10 09:48:21;;;;;;;0.70;0.70;;;2.90;68.50;2.10;96034.00;;;;5113692;28;20520;-73
2021/12/10 09:50:57;;;;;;;1.00;1.00;;;2.90;68.10;2.10;96033.00;;;;5113794;28;20256;-73
2021/12/10 09:53:28;;;;;;;0.70;0.70;;;2.90;68.10;2.20;96026.00;;;;5116886;28;20209;-72
2021/12/10 09:55:56;;;;;;;1.10;1.10;;;3.00;68.00;2.30;96034.00;;;;5117097;28;20236;-73
2021/12/10 09:58:25;;;;;;;0.50;0.50;;;3.10;67.60;2.20;96024.00;;;;5117252;28;20617;-73
2021/12/10 10:00:56;;;;;;;1.87;1.77;;;3.10;66.30;2.40;96015.00;;;;5117077;28;20293;-73
2021/12/10 10:03:31;;;;;;;0.60;0.60;;;3.10;66.40;2.50;96023.00;;;;5117987;28;20308;-72
2021/12/10 10:06:01;;;;;;;0.70;0.70;;;3.20;66.00;2.50;96010.00;;;;5117773;28;20265;-74
2021/12/10 10:08:32;;;;;;;1.43;1.33;;;3.20;65.80;2.60;96008.00;;;;5119032;28;20227;-77
2021/12/10 10:11:06;;;;;;;1.00;1.00;;;3.30;65.60;2.60;96003.00;;;;5117730;28;20197;-74
2021/12/10 10:13:38;;;;;;;0.60;0.60;;;3.30;64.90;2.60;96000.00;;;;5117211;28;20217;-73
2021/12/10 10:16:07;;;;;;;0.60;0.60;;;3.40;61.60;2.70;95990.00;;;;5116888;28;20292;-73
2021/12/10 10:18:38;;;;;;;0.63;0.63;;;3.40;60.30;2.70;95989.00;;;;5116827;28;20229;-74
2021/12/10 10:21:11;;;;;;;1.00;0.90;;;3.50;60.40;2.70;95979.00;;;;5116783;28;20190;-72
2021/12/10 10:23:41;;;;;;;0.80;0.80;;;3.50;59.80;2.80;95953.00;;;;5116842;28;20299;-73
2021/12/10 10:26:14;;;;;;;0.60;0.60;;;3.60;59.40;2.80;95955.00;;;;5116792;28;20211;-73
2021/12/10 10:28:42;;;;;;;1.13;1.13;;;3.60;58.60;2.90;95959.00;;;;5116620;28;20293;-74
2021/12/10 10:31:17;;;;;;;0.80;0.80;;;3.70;59.10;2.90;95964.00;;;;5116615;28;20277;-73
2021/12/10 10:33:46;;;;;;;0.60;0.60;;;3.70;59.40;2.90;95957.00;;;;5098679;28;20737;-73
2021/12/10 10:36:19;;;;;;;6.03;2.20;;;3.70;58.90;3.00;95929.00;;;;5116438;28;20224;-72
2021/12/10 10:38:48;;;;;;;0.80;0.80;;;3.80;58.90;3.00;95940.00;;;;5116425;28;20221;-75
2021/12/10 10:41:18;;;;;;;0.60;0.60;;;3.80;58.80;3.10;95928.00;;;;5116503;28;20194;-74
2021/12/10 10:43:45;;;;;;;1.23;0.70;;;3.80;58.30;3.00;95939.00;;;;5116492;28;20618;-71
2021/12/10 10:46:13;;;;;;;1.10;1.10;;;3.80;58.40;3.00;95926.00;;;;5098550;28;20201;-72
2021/12/10 10:48:41;;;;;;;0.50;0.50;;;3.90;58.00;3.00;95903.00;;;;5116623;28;20255;-71
2021/12/10 10:51:16;;;;;;;0.57;0.57;;;3.90;57.40;3.00;95912.00;;;;5098535;28;20296;-72
2021/12/10 10:53:48;;;;;;;0.97;0.97;;;3.80;58.00;3.10;95915.00;;;;5116299;28;20277;-73
2021/12/10 10:56:18;;;;;;;0.60;0.60;;;3.90;57.20;3.20;95917.00;;;;5116362;28;20241;-72
2021/12/10 10:58:53;;;;;;;0.60;0.60;;;3.90;56.60;3.20;95923.00;;;;5116269;28;20228;-73
2021/12/10 11:01:28;;;;;;;0.57;0.57;;;4.00;56.10;3.30;95919.00;;;;5116100;28;20211;-72
2021/12/10 11:04:00;;;;;;;0.80;0.80;;;4.00;55.40;3.20;95912.00;;;;5115113;28;20201;-73
2021/12/10 11:06:31;;;;;;;0.60;0.60;;;4.00;55.50;3.30;95916.00;;;;5116043;28;20213;-72
2021/12/10 11:09:11;;;;;;;0.60;0.60;;;4.00;55.10;3.30;95916.00;;;;5116092;28;20201;-72
2021/12/10 11:11:45;;;;;;;0.60;0.60;;;4.10;54.70;3.40;95921.00;;;;5115908;28;20673;-73
2021/12/10 11:14:16;;;;;;;0.60;0.60;;;4.20;54.70;3.50;95916.00;;;;5115903;28;20268;-71
2021/12/10 11:16:48;;;;;;;0.77;0.77;;;4.20;54.40;3.50;95911.00;;;;5115785;28;20279;-72
2021/12/10 11:19:19;;;;;;;0.60;0.60;;;4.20;54.30;3.60;95874.00;;;;5115892;28;20193;-71
2021/12/10 11:21:50;;;;;;;0.70;0.70;;;4.30;55.10;3.60;95917.00;;;;5116021;28;20221;-72
2021/12/10 11:24:23;;;;;;;1.10;1.10;;;4.40;56.60;3.60;95913.00;;;;5115810;28;20282;-71
2021/12/10 11:26:57;;;;;;;1.03;1.00;;;4.40;58.70;3.60;95909.00;;;;5115577;28;20218;-73
2021/12/10 11:29:43;;;;;;;3.40;1.13;;;4.40;59.80;3.60;95923.00;;;;5115688;28;20217;-72